createdAt,value
2022-08-11T00:02:31.977Z,2.20
2022-08-11T00:05:05.690Z,2.47
2022-08-11T00:12:35.132Z,2.97
2022-08-11T00:15:02.422Z,2.43
2022-08-11T00:17:34.427Z,2.50
2022-08-11T00:20:13.793Z,2.23
2022-08-11T00:22:45.902Z,2.70
2022-08-11T00:25:14.646Z,2.43
2022-08-11T00:27:42.515Z,2.80
2022-08-11T00:37:34.484Z,2.33
2022-08-11T00:40:03.931Z,2.57
2022-08-11T00:42:45.993Z,2.70
2022-08-11T00:45:22.320Z,2.50
2022-08-11T00:48:00.372Z,2.73
2022-08-11T00:50:35.953Z,2.70
2022-08-11T00:53:41.152Z,2.67
2022-08-11T01:01:34.164Z,2.50
2022-08-11T01:04:20.616Z,3.00
2022-08-11T01:07:07.142Z,2.63
2022-08-11T01:09:49.520Z,2.70
2022-08-11T01:12:45.797Z,2.90
2022-08-11T01:15:40.393Z,3.00
2022-08-11T01:24:04.202Z,2.30
2022-08-11T01:27:19.364Z,2.50
2022-08-11T01:30:36.490Z,2.87
2022-08-11T01:33:37.661Z,2.70
2022-08-11T01:36:37.494Z,2.83
2022-08-11T01:39:33.206Z,2.60
2022-08-11T01:47:53.253Z,2.93
2022-08-11T01:51:03.049Z,2.90
2022-08-11T01:53:40.127Z,2.97
2022-08-11T01:56:24.666Z,2.60
2022-08-11T01:59:03.597Z,3.20
2022-08-11T02:01:57.557Z,2.77
2022-08-11T02:08:50.330Z,3.13
2022-08-11T02:11:30.460Z,3.07
2022-08-11T02:14:10.371Z,2.90
2022-08-11T02:16:48.510Z,2.97
2022-08-11T02:19:42.582Z,3.10
2022-08-11T02:22:41.404Z,2.93
2022-08-11T02:25:18.025Z,3.23
2022-08-11T02:33:13.718Z,3.10
2022-08-11T02:35:49.073Z,3.20
2022-08-11T02:38:23.908Z,3.03
2022-08-11T02:40:59.696Z,3.40
2022-08-11T02:43:51.092Z,3.50
2022-08-11T02:46:26.554Z,3.27
2022-08-11T02:57:23.848Z,3.47
2022-08-11T02:59:55.685Z,3.50
2022-08-11T03:02:49.999Z,3.47
2022-08-11T03:05:31.206Z,3.60
2022-08-11T03:08:27.734Z,3.33
2022-08-11T03:11:21.485Z,3.30
2022-08-11T03:19:15.669Z,3.80
2022-08-11T03:22:01.753Z,3.60
2022-08-11T03:24:42.123Z,3.40
2022-08-11T03:27:13.161Z,3.77
2022-08-11T03:29:47.371Z,3.90
2022-08-11T03:32:26.344Z,3.43
2022-08-11T03:42:43.169Z,3.93
2022-08-11T03:45:24.754Z,3.70
2022-08-11T03:48:11.150Z,4.03
2022-08-11T03:51:07.896Z,3.90
2022-08-11T03:53:56.323Z,4.07
2022-08-11T03:56:56.044Z,3.73
2022-08-11T04:02:32.889Z,3.87
2022-08-11T04:05:38.846Z,4.07
2022-08-11T04:08:41.531Z,4.37
2022-08-11T04:11:54.254Z,3.90
2022-08-11T04:15:05.604Z,3.97
2022-08-11T04:24:36.386Z,3.97
2022-08-11T04:27:37.200Z,4.10
2022-08-11T04:30:12.097Z,4.43
2022-08-11T04:33:16.470Z,4.00
2022-08-11T04:35:52.948Z,4.40
2022-08-11T04:38:46.232Z,3.93
2022-08-11T04:46:57.018Z,3.97
2022-08-11T04:50:13.234Z,4.20
2022-08-11T04:53:31.175Z,3.90
2022-08-11T04:56:23.575Z,4.20
2022-08-11T04:59:34.256Z,4.20
2022-08-11T05:05:32.132Z,3.77
2022-08-11T05:08:37.299Z,4.23
2022-08-11T05:11:24.327Z,4.30
2022-08-11T05:14:18.889Z,4.43
2022-08-11T05:17:12.997Z,4.20
2022-08-11T05:20:03.369Z,4.60
2022-08-11T05:27:08.760Z,4.13
2022-08-11T05:30:02.946Z,4.33
2022-08-11T05:32:58.053Z,4.43
2022-08-11T05:36:00.710Z,4.30
2022-08-11T05:38:42.389Z,4.10
2022-08-11T05:41:30.217Z,4.20
2022-08-11T05:49:13.576Z,4.20
2022-08-11T05:52:05.617Z,4.10
2022-08-11T05:54:59.847Z,4.30
2022-08-11T05:57:50.871Z,4.70
2022-08-11T06:00:19.507Z,3.63
2022-08-11T06:02:51.374Z,3.30
2022-08-11T06:12:58.039Z,3.73
2022-08-11T06:15:26.376Z,3.87
2022-08-11T06:17:55.345Z,4.07
2022-08-11T06:20:24.702Z,4.03
2022-08-11T06:23:05.036Z,4.00
2022-08-11T06:25:35.032Z,3.80
2022-08-11T06:28:06.137Z,3.90
2022-08-11T06:35:30.709Z,3.60
2022-08-11T06:38:07.602Z,3.77
2022-08-11T06:40:41.613Z,3.60
2022-08-11T06:43:18.153Z,3.60
2022-08-11T06:45:52.863Z,4.20
2022-08-11T06:48:22.838Z,3.87
2022-08-11T06:51:10.486Z,3.70
2022-08-11T06:58:58.461Z,3.93
2022-08-11T07:01:37.913Z,3.60
2022-08-11T07:04:08.661Z,3.50
2022-08-11T07:07:11.999Z,3.57
2022-08-11T07:10:25.917Z,4.20
2022-08-11T07:13:43.189Z,3.57
2022-08-11T07:23:40.099Z,3.17
2022-08-11T07:26:25.445Z,3.30
2022-08-11T07:28:58.127Z,3.37
2022-08-11T07:31:31.171Z,3.00
2022-08-11T07:34:15.876Z,3.53
2022-08-11T07:36:50.672Z,3.07
2022-08-11T07:44:24.953Z,3.30
2022-08-11T07:47:12.033Z,3.50
2022-08-11T07:49:58.495Z,3.83
2022-08-11T07:52:32.968Z,3.10
2022-08-11T07:55:01.625Z,3.40
2022-08-11T07:58:14.210Z,3.20
2022-08-11T08:04:05.022Z,3.50
2022-08-11T08:06:52.299Z,3.10
2022-08-11T08:09:38.885Z,3.30
2022-08-11T08:12:26.221Z,3.17
2022-08-11T08:15:12.712Z,3.10
2022-08-11T08:18:08.300Z,3.10
2022-08-11T08:25:42.257Z,3.30
2022-08-11T08:28:13.342Z,3.13
2022-08-11T08:30:47.413Z,3.23
2022-08-11T08:33:17.096Z,3.30
2022-08-11T08:35:54.311Z,3.10
2022-08-11T08:38:23.026Z,3.17
2022-08-11T08:40:55.940Z,3.37
2022-08-11T08:48:28.502Z,3.53
2022-08-11T08:51:21.849Z,3.07
2022-08-11T08:53:53.919Z,3.20
2022-08-11T08:56:27.437Z,3.13
2022-08-11T08:58:54.873Z,2.90
2022-08-11T09:01:24.691Z,3.23
2022-08-11T09:04:04.959Z,3.53
2022-08-11T09:11:15.376Z,3.37
2022-08-11T09:13:43.658Z,3.10
2022-08-11T09:16:11.550Z,3.13
2022-08-11T09:18:39.882Z,3.10
2022-08-11T09:21:07.133Z,3.20
2022-08-11T09:24:22.071Z,3.10
2022-08-11T09:30:11.987Z,2.93
2022-08-11T09:32:39.893Z,2.80
2022-08-11T09:35:07.866Z,3.10
2022-08-11T09:37:56.585Z,2.97
2022-08-11T09:40:30.551Z,3.03
2022-08-11T09:43:16.570Z,2.83
2022-08-11T09:45:50.057Z,2.90
2022-08-11T09:53:36.594Z,3.43
2022-08-11T09:56:22.079Z,3.20
2022-08-11T09:58:50.589Z,3.17
2022-08-11T10:01:26.969Z,3.10
2022-08-11T10:03:59.473Z,3.00
2022-08-11T10:06:46.591Z,3.00
2022-08-11T10:13:05.213Z,3.10
2022-08-11T10:16:14.421Z,2.60
2022-08-11T10:18:48.662Z,2.60
2022-08-11T10:21:27.532Z,2.73
2022-08-11T10:24:14.034Z,2.77
2022-08-11T10:26:56.104Z,2.50
2022-08-11T10:34:51.213Z,2.87
2022-08-11T10:37:25.528Z,2.80
2022-08-11T10:40:17.935Z,2.60
2022-08-11T10:43:03.066Z,2.70
2022-08-11T10:45:49.265Z,2.60
2022-08-11T10:48:17.582Z,2.70
2022-08-11T10:56:46.559Z,2.70
2022-08-11T10:59:14.460Z,2.50
2022-08-11T11:01:43.330Z,2.80
2022-08-11T11:04:13.957Z,2.87
2022-08-11T11:06:50.199Z,2.53
2022-08-11T11:09:19.667Z,2.60
2022-08-11T11:12:09.115Z,2.33
2022-08-11T11:20:00.428Z,2.77
2022-08-11T11:22:37.743Z,2.70
2022-08-11T11:25:15.703Z,2.47
2022-08-11T11:27:54.496Z,2.50
2022-08-11T11:30:23.041Z,2.80
2022-08-11T11:32:59.596Z,2.43
2022-08-11T11:38:13.821Z,2.70
2022-08-11T11:40:41.492Z,2.30
2022-08-11T11:43:08.368Z,2.90
2022-08-11T11:45:35.310Z,2.97
2022-08-11T11:48:02.195Z,2.70
2022-08-11T11:50:32.931Z,2.37
2022-08-11T11:53:01.648Z,2.50
2022-08-11T12:00:49.533Z,2.40
2022-08-11T12:03:17.656Z,2.53
2022-08-11T12:05:45.524Z,2.73
2022-08-11T12:08:15.334Z,2.20
2022-08-11T12:10:48.230Z,2.07
2022-08-11T12:13:34.631Z,2.30
2022-08-11T12:16:31.199Z,2.10
2022-08-11T12:24:13.781Z,2.30
2022-08-11T12:27:15.269Z,2.10
2022-08-11T12:29:49.010Z,2.10
2022-08-11T12:32:19.675Z,2.60
2022-08-11T12:34:46.701Z,2.40
2022-08-11T12:37:14.960Z,2.10
2022-08-11T12:45:43.788Z,2.20
2022-08-11T12:48:58.980Z,2.20
2022-08-11T12:52:11.190Z,1.90
2022-08-11T12:54:35.983Z,1.97
2022-08-11T12:57:37.242Z,2.20
2022-08-11T13:00:28.565Z,2.27
2022-08-11T13:05:57.188Z,2.20
2022-08-11T13:08:25.886Z,2.00
2022-08-11T13:11:12.638Z,2.13
2022-08-11T13:13:53.954Z,2.20
2022-08-11T13:16:24.992Z,1.90
2022-08-11T13:18:53.440Z,2.03
2022-08-11T13:21:22.829Z,1.80
2022-08-11T13:28:51.974Z,2.00
2022-08-11T13:31:18.789Z,2.07
2022-08-11T13:33:50.763Z,1.73
2022-08-11T13:36:19.877Z,1.90
2022-08-11T13:38:50.075Z,2.10
2022-08-11T13:41:40.502Z,2.23
2022-08-11T13:44:16.770Z,2.00
2022-08-11T13:51:48.402Z,2.10
2022-08-11T13:54:18.411Z,2.30
2022-08-11T13:56:51.655Z,2.10
2022-08-11T13:59:19.796Z,1.90
2022-08-11T14:02:20.933Z,2.10
2022-08-11T14:04:45.060Z,1.83
2022-08-11T14:07:17.900Z,1.80
2022-08-11T14:14:56.671Z,2.03
2022-08-11T14:17:40.015Z,1.83
2022-08-11T14:20:35.332Z,1.97
2022-08-11T14:22:59.028Z,1.73
2022-08-11T14:25:59.770Z,2.10
2022-08-11T14:28:31.867Z,1.90
2022-08-11T14:36:06.976Z,1.93
2022-08-11T14:38:35.311Z,1.67
2022-08-11T14:41:20.969Z,1.90
2022-08-11T14:44:13.608Z,1.97
2022-08-11T14:47:00.750Z,1.97
2022-08-11T14:49:28.325Z,1.83
2022-08-11T14:58:04.899Z,1.77
2022-08-11T15:00:33.993Z,1.83
2022-08-11T15:03:11.945Z,1.80
2022-08-11T15:05:55.939Z,1.77
2022-08-11T15:08:48.062Z,1.80
2022-08-11T15:11:35.168Z,2.23
2022-08-11T15:17:43.990Z,2.07
2022-08-11T15:20:35.380Z,1.80
2022-08-11T15:23:21.468Z,1.83
2022-08-11T15:25:53.769Z,1.80
2022-08-11T15:28:40.285Z,2.10
2022-08-11T15:31:36.580Z,1.60
2022-08-11T15:39:32.140Z,2.00
2022-08-11T15:42:28.854Z,1.83
2022-08-11T15:45:28.981Z,1.67
2022-08-11T15:48:05.778Z,1.93
2022-08-11T15:50:38.481Z,2.03
2022-08-11T15:53:11.562Z,1.77
2022-08-11T16:01:33.302Z,1.67
2022-08-11T16:04:13.357Z,1.80
2022-08-11T16:06:52.787Z,1.90
2022-08-11T16:09:26.452Z,1.43
2022-08-11T16:12:01.429Z,1.80
2022-08-11T16:14:49.189Z,1.77
2022-08-11T16:19:56.610Z,1.80
2022-08-11T16:22:31.034Z,2.00
2022-08-11T16:27:04.288Z,1.70
2022-08-11T16:27:53.035Z,1.60
2022-08-11T16:30:20.374Z,1.70
2022-08-11T16:32:52.294Z,1.90
2022-08-11T16:35:41.089Z,1.83
2022-08-11T16:43:49.808Z,1.97
2022-08-11T16:46:33.245Z,2.00
2022-08-11T16:49:02.344Z,1.87
2022-08-11T16:51:29.103Z,1.63
2022-08-11T16:54:05.090Z,2.00
2022-08-11T16:56:37.137Z,1.80
2022-08-11T17:05:54.475Z,1.83
2022-08-11T17:08:57.431Z,1.83
2022-08-11T17:11:45.519Z,2.13
2022-08-11T17:14:16.066Z,2.07
2022-08-11T17:16:48.417Z,1.90
2022-08-11T17:20:40.090Z,1.60
2022-08-11T17:26:03.119Z,1.80
2022-08-11T17:28:34.170Z,1.93
2022-08-11T17:31:22.444Z,2.37
2022-08-11T17:34:09.500Z,1.87
2022-08-11T17:36:41.632Z,1.80
2022-08-11T17:39:12.877Z,1.90
2022-08-11T17:42:00.257Z,2.07
2022-08-11T17:49:51.181Z,1.90
2022-08-11T17:52:36.834Z,1.80
2022-08-11T17:55:52.058Z,2.10
2022-08-11T17:58:32.696Z,2.03
2022-08-11T18:01:00.573Z,2.20
2022-08-11T18:03:38.773Z,2.10
2022-08-11T18:12:07.064Z,1.70
2022-08-11T18:14:30.997Z,2.00
2022-08-11T18:17:15.751Z,1.90
2022-08-11T18:20:00.864Z,1.80
2022-08-11T18:22:53.833Z,1.70
2022-08-11T18:25:45.335Z,2.07
2022-08-11T18:34:07.123Z,2.10
2022-08-11T18:36:56.746Z,2.57
2022-08-11T18:40:33.207Z,2.00
2022-08-11T18:43:26.926Z,1.70
2022-08-11T18:46:17.906Z,2.33
2022-08-11T18:57:19.957Z,1.80
2022-08-11T19:00:06.457Z,2.27
2022-08-11T19:02:55.368Z,3.50
2022-08-11T19:06:35.621Z,1.97
2022-08-11T19:08:54.285Z,3.00
2022-08-11T19:11:42.715Z,2.20
2022-08-11T19:14:55.937Z,2.17
2022-08-11T19:21:58.679Z,2.30
2022-08-11T19:24:44.646Z,2.63
2022-08-11T19:27:30.913Z,2.70
2022-08-11T19:30:17.385Z,2.50
2022-08-11T19:33:03.054Z,1.70
2022-08-11T19:35:49.389Z,2.23
2022-08-11T19:44:24.082Z,2.30
2022-08-11T19:47:10.536Z,2.00
2022-08-11T19:49:58.786Z,2.10
2022-08-11T19:52:44.137Z,2.20
2022-08-11T19:55:29.860Z,2.33
2022-08-11T19:58:15.349Z,2.27
2022-08-11T20:06:40.903Z,3.20
2022-08-11T20:09:27.683Z,2.70
2022-08-11T20:12:33.824Z,3.57
2022-08-11T20:15:18.928Z,3.17
2022-08-11T20:18:04.991Z,2.90
2022-08-11T20:20:50.310Z,2.87
2022-08-11T20:29:01.148Z,2.50
2022-08-11T20:31:45.929Z,2.53
2022-08-11T20:34:33.661Z,2.17
2022-08-11T20:37:20.582Z,2.50
2022-08-11T20:40:07.635Z,2.13
2022-08-11T20:42:55.353Z,2.37
2022-08-11T20:51:06.348Z,2.10
2022-08-11T20:53:53.102Z,2.20
2022-08-11T20:56:39.157Z,2.17
2022-08-11T20:59:27.334Z,2.17
2022-08-11T21:02:17.497Z,2.13
2022-08-11T21:05:02.989Z,2.03
2022-08-11T21:10:29.643Z,2.37
2022-08-11T21:13:25.007Z,2.17
2022-08-11T21:16:18.356Z,2.10
2022-08-11T21:19:18.314Z,2.27
2022-08-11T21:22:04.380Z,2.20
2022-08-11T21:24:51.186Z,2.10
2022-08-11T21:33:00.479Z,2.10
2022-08-11T21:35:46.769Z,2.00
2022-08-11T21:38:34.551Z,2.30
2022-08-11T21:41:23.461Z,2.00
2022-08-11T21:44:10.212Z,2.33
2022-08-11T21:46:57.001Z,2.10
2022-08-11T21:55:03.513Z,2.27
2022-08-11T21:57:49.792Z,2.37
2022-08-11T22:00:36.451Z,2.23
2022-08-11T22:03:22.983Z,2.33
2022-08-11T22:06:08.673Z,2.30
2022-08-11T22:08:53.725Z,2.30
2022-08-11T22:17:00.877Z,1.90
2022-08-11T22:19:46.648Z,2.70
2022-08-11T22:22:31.926Z,2.50
2022-08-11T22:25:18.484Z,2.40
2022-08-11T22:28:03.661Z,2.10
2022-08-11T22:30:48.605Z,2.30
2022-08-11T22:41:43.721Z,2.17
2022-08-11T22:44:29.541Z,2.33
2022-08-11T22:47:18.332Z,2.33
2022-08-11T22:50:06.650Z,2.60
2022-08-11T22:52:52.741Z,2.43
2022-08-11T22:55:38.317Z,2.20
2022-08-11T23:01:39.497Z,2.30
2022-08-11T23:04:41.732Z,2.40
2022-08-11T23:07:50.837Z,2.57
2022-08-11T23:10:33.737Z,2.60
2022-08-11T23:13:22.033Z,2.50
2022-08-11T23:16:08.051Z,2.50
2022-08-11T23:22:20.075Z,2.97
2022-08-11T23:25:05.309Z,2.50
2022-08-11T23:27:52.344Z,2.53
2022-08-11T23:30:37.105Z,2.87
2022-08-11T23:33:23.840Z,2.90
2022-08-11T23:36:09.919Z,2.83
2022-08-11T23:42:46.265Z,2.80
2022-08-11T23:45:32.063Z,3.00
2022-08-11T23:48:19.281Z,2.60
2022-08-11T23:51:04.188Z,3.00
2022-08-11T23:53:49.198Z,2.60
2022-08-11T23:56:34.401Z,2.80
